PWSweather.com
Personal Weather Stations
Station Observations
REUBENS
Camas Prairie, Reubens, ID 83548

Camas PrairieReubens, ID 83548

Lat: 46.35417, Lon: -116.53167

Elevation: 3480

Station Type: Davis VantagePro 2

http://www.theobrienranch.com/wx/wx.htm

Latest ConditionsUpdated 11:30:01 PM PDT Tuesday, Apr 24, 2018
Currently Today's Max Today's Min Today's Average
Temperature 47.7°F8.7°C 64.1°F17.8°C 35.9°F2.2°C 50.3°F10.2°C
Dew Point 35.7°F2.1°C 39.6°F4.2°C 25.8°F-3.4°C 32.5°F0.3°C
Winds Calm Calm 15.0 mph ESE24.1 kmh ESE - 6.6 mph 10.6 kmh
Wind Gusts -- 17.3 mph27.8 kmh - -
Humidity 63% 73% 34% 52%
Pressure 30.25 in1024.4 mb 30.51 in1033.2 mb 30.24 in1024.0 mb -
Hour Temp Dew Point Humidity Winds Wind Gusts Pressure Precip Precip Rate Daily Precip Total
11:30 PM 47.7°F8.7°C 35.7°F2.1°C 63% Calm Calm -- 30.25 in1024.4 mb - 0.00 in0.0 mm 0.00 in0.0 mm
11:15 PM 48.1°F8.9°C 35.7°F2.1°C 62% Calm Calm -- 30.25 in1024.4 mb - 0.00 in0.0 mm 0.00 in0.0 mm
11:00 PM 48.7°F9.3°C 35.4°F1.9°C 60% 1.2 mph S1.9 kmh S 2.3 mph3.7 kmh 30.26 in1024.7 mb - 0.00 in0.0 mm 0.00 in0.0 mm
10:45 PM 48.7°F9.3°C 36.2°F2.3°C 62% 3.5 mph S5.6 kmh S 3.5 mph5.6 kmh 30.26 in1024.7 mb - 0.00 in0.0 mm 0.00 in0.0 mm
10:30 PM 49.3°F9.6°C 35.6°F2.0°C 59% 3.5 mph S5.6 kmh S 3.5 mph5.6 kmh 30.26 in1024.7 mb - 0.00 in0.0 mm 0.00 in0.0 mm
10:15 PM 50.2°F10.1°C 35.1°F1.7°C 56% 2.3 mph S3.7 kmh S 3.5 mph5.6 kmh 30.26 in1024.7 mb - 0.00 in0.0 mm 0.00 in0.0 mm
10:00 PM 50.6°F10.3°C 34.1°F1.2°C 53% 2.3 mph S3.7 kmh S 3.5 mph5.6 kmh 30.27 in1025.1 mb - 0.00 in0.0 mm 0.00 in0.0 mm
09:45 PM 49.8°F9.9°C 36.1°F2.3°C 59% Calm Calm -- 30.27 in1025.1 mb - 0.00 in0.0 mm 0.00 in0.0 mm
09:30 PM 51.5°F10.8°C 35.4°F1.9°C 54% Calm Calm -- 30.27 in1025.1 mb - 0.00 in0.0 mm 0.00 in0.0 mm
09:15 PM 53.2°F11.8°C 35.1°F1.7°C 50% Calm Calm -- 30.27 in1025.1 mb - 0.00 in0.0 mm 0.00 in0.0 mm
09:00 PM 56.3°F13.5°C 34.1°F1.2°C 43% Calm Calm -- 30.27 in1025.1 mb - 0.00 in0.0 mm 0.00 in0.0 mm
08:45 PM 59.0°F15.0°C 31.4°F-0.3°C 35% Calm Calm -- 30.25 in1024.4 mb - 0.00 in0.0 mm 0.00 in0.0 mm
08:30 PM 57.5°F14.2°C 32.1°F0.1°C 38% 2.3 mph ESE3.7 kmh ESE 3.5 mph5.6 kmh 30.25 in1024.4 mb - 0.00 in0.0 mm 0.00 in0.0 mm
08:15 PM 59.1°F15.1°C 33.5°F0.8°C 38% Calm Calm -- 30.24 in1024.0 mb - 0.00 in0.0 mm 0.00 in0.0 mm
08:00 PM 59.3°F15.2°C 33.0°F0.6°C 37% Calm Calm -- 30.26 in1024.7 mb - 0.00 in0.0 mm 0.00 in0.0 mm
07:45 PM 58.6°F14.8°C 33.7°F0.9°C 39% Calm Calm -- 30.26 in1024.7 mb - 0.00 in0.0 mm 0.00 in0.0 mm
07:30 PM 59.0°F15.0°C 35.9°F2.2°C 42% Calm Calm -- 30.25 in1024.4 mb - 0.00 in0.0 mm 0.00 in0.0 mm
07:15 PM 59.0°F15.0°C 35.3°F1.8°C 41% Calm Calm -- 30.25 in1024.4 mb - 0.00 in0.0 mm 0.00 in0.0 mm
07:00 PM 60.5°F15.8°C 36.0°F2.2°C 40% 5.8 mph ESE9.3 kmh ESE 5.8 mph9.3 kmh 30.26 in1024.7 mb - 0.00 in0.0 mm 0.00 in0.0 mm
06:45 PM 61.8°F16.6°C 36.6°F2.6°C 39% 9.2 mph ESE14.8 kmh ESE 10.4 mph16.7 kmh 30.25 in1024.4 mb - 0.00 in0.0 mm 0.00 in0.0 mm
06:30 PM 62.5°F16.9°C 35.2°F1.8°C 36% 8.1 mph SE13.0 kmh SE 11.5 mph18.5 kmh 30.27 in1025.1 mb - 0.00 in0.0 mm 0.00 in0.0 mm
06:15 PM 62.9°F17.2°C 37.5°F3.1°C 39% 10.4 mph ESE16.7 kmh ESE 11.5 mph18.5 kmh 30.27 in1025.1 mb - 0.00 in0.0 mm 0.00 in0.0 mm
06:00 PM 63.2°F17.3°C 37.8°F3.2°C 39% 8.1 mph SE13.0 kmh SE 12.7 mph20.4 kmh 30.28 in1025.4 mb - 0.00 in0.0 mm 0.00 in0.0 mm
05:45 PM 63.4°F17.4°C 38.0°F3.3°C 39% 9.2 mph ESE14.8 kmh ESE 10.4 mph16.7 kmh 30.29 in1025.7 mb - 0.00 in0.0 mm 0.00 in0.0 mm
05:30 PM 63.5°F17.5°C 37.4°F3.0°C 38% 10.4 mph E16.7 kmh E 13.8 mph22.2 kmh 30.29 in1025.7 mb - 0.00 in0.0 mm 0.00 in0.0 mm
05:15 PM 63.8°F17.7°C 39.6°F4.2°C 41% 10.4 mph SE16.7 kmh SE 12.7 mph20.4 kmh 30.30 in1026.1 mb - 0.00 in0.0 mm 0.00 in0.0 mm
05:00 PM 63.6°F17.6°C 38.8°F3.8°C 40% 8.1 mph ESE13.0 kmh ESE 15.0 mph24.1 kmh 30.30 in1026.1 mb - 0.00 in0.0 mm 0.00 in0.0 mm
04:45 PM 63.5°F17.5°C 37.4°F3.0°C 38% 9.2 mph SE14.8 kmh SE 11.5 mph18.5 kmh 30.31 in1026.4 mb - 0.00 in0.0 mm 0.00 in0.0 mm
04:30 PM 64.1°F17.8°C 35.9°F2.2°C 35% 13.8 mph SE22.2 kmh SE 15.0 mph24.1 kmh 30.32 in1026.8 mb - 0.00 in0.0 mm 0.00 in0.0 mm
04:15 PM 63.6°F17.6°C 37.5°F3.1°C 38% 11.5 mph SE18.5 kmh SE 17.3 mph27.8 kmh 30.32 in1026.8 mb - 0.00 in0.0 mm 0.00 in0.0 mm
04:00 PM 63.6°F17.6°C 36.1°F2.3°C 36% 12.7 mph SE20.4 kmh SE 17.3 mph27.8 kmh 30.32 in1026.8 mb - 0.00 in0.0 mm 0.00 in0.0 mm
03:45 PM 63.5°F17.5°C 38.1°F3.4°C 39% 12.7 mph ESE20.4 kmh ESE 15.0 mph24.1 kmh 30.33 in1027.1 mb - 0.00 in0.0 mm 0.00 in0.0 mm
03:30 PM 63.0°F17.2°C 34.1°F1.2°C 34% 11.5 mph SE18.5 kmh SE 12.7 mph20.4 kmh 30.35 in1027.8 mb - 0.00 in0.0 mm 0.00 in0.0 mm
03:15 PM 63.1°F17.3°C 36.4°F2.4°C 37% 10.4 mph SE16.7 kmh SE 13.8 mph22.2 kmh 30.35 in1027.8 mb - 0.00 in0.0 mm 0.00 in0.0 mm
03:00 PM 62.7°F17.1°C 35.3°F1.8°C 36% 9.2 mph ESE14.8 kmh ESE 12.7 mph20.4 kmh 30.36 in1028.1 mb - 0.00 in0.0 mm 0.00 in0.0 mm
02:45 PM 62.2°F16.8°C 35.6°F2.0°C 37% 12.7 mph SE20.4 kmh SE 15.0 mph24.1 kmh 30.37 in1028.4 mb - 0.00 in0.0 mm 0.00 in0.0 mm
02:30 PM 61.5°F16.4°C 35.6°F2.0°C 38% 8.1 mph ESE13.0 kmh ESE 11.5 mph18.5 kmh 30.38 in1028.8 mb - 0.00 in0.0 mm 0.00 in0.0 mm
02:15 PM 61.2°F16.2°C 33.3°F0.7°C 35% 5.8 mph SSE9.3 kmh SSE 11.5 mph18.5 kmh 30.38 in1028.8 mb - 0.00 in0.0 mm 0.00 in0.0 mm
02:00 PM 60.6°F15.9°C 36.1°F2.3°C 40% 6.9 mph E11.1 kmh E 11.5 mph18.5 kmh 30.39 in1029.1 mb - 0.00 in0.0 mm 0.00 in0.0 mm
01:45 PM 60.1°F15.6°C 36.3°F2.4°C 41% 10.4 mph E16.7 kmh E 11.5 mph18.5 kmh 30.39 in1029.1 mb - 0.00 in0.0 mm 0.00 in0.0 mm
01:30 PM 59.4°F15.2°C 36.2°F2.3°C 42% 8.1 mph E13.0 kmh E 15.0 mph24.1 kmh 30.41 in1029.8 mb - 0.00 in0.0 mm 0.00 in0.0 mm
01:15 PM 59.0°F15.0°C 34.7°F1.5°C 40% 8.1 mph E13.0 kmh E 13.8 mph22.2 kmh 30.41 in1029.8 mb - 0.00 in0.0 mm 0.00 in0.0 mm
01:00 PM 58.5°F14.7°C 36.7°F2.6°C 44% 10.4 mph ESE16.7 kmh ESE 11.5 mph18.5 kmh 30.39 in1029.1 mb - 0.00 in0.0 mm 0.00 in0.0 mm
12:45 PM 57.6°F14.2°C 38.1°F3.4°C 48% 9.2 mph E14.8 kmh E 11.5 mph18.5 kmh 30.40 in1029.5 mb - 0.00 in0.0 mm 0.00 in0.0 mm
12:30 PM 57.6°F14.2°C 37.0°F2.8°C 46% 10.4 mph ENE16.7 kmh ENE 10.4 mph16.7 kmh 30.41 in1029.8 mb - 0.00 in0.0 mm 0.00 in0.0 mm
12:15 PM 56.9°F13.8°C 37.4°F3.0°C 48% 8.1 mph E13.0 kmh E 12.7 mph20.4 kmh 30.42 in1030.1 mb - 0.00 in0.0 mm 0.00 in0.0 mm
12:00 PM 55.9°F13.3°C 37.0°F2.8°C 49% 8.1 mph E13.0 kmh E 10.4 mph16.7 kmh 30.43 in1030.5 mb - 0.00 in0.0 mm 0.00 in0.0 mm
11:45 AM 54.7°F12.6°C 35.9°F2.2°C 49% 8.1 mph ESE13.0 kmh ESE 11.5 mph18.5 kmh 30.45 in1031.2 mb - 0.00 in0.0 mm 0.00 in0.0 mm
11:30 AM 54.5°F12.5°C 36.2°F2.3°C 50% 9.2 mph E14.8 kmh E 11.5 mph18.5 kmh 30.45 in1031.2 mb - 0.00 in0.0 mm 0.00 in0.0 mm
11:15 AM 53.3°F11.8°C 35.1°F1.7°C 50% 10.4 mph E16.7 kmh E 15.0 mph24.1 kmh 30.47 in1031.8 mb - 0.00 in0.0 mm 0.00 in0.0 mm
11:00 AM 52.3°F11.3°C 35.2°F1.8°C 52% 10.4 mph E16.7 kmh E 12.7 mph20.4 kmh 30.48 in1032.2 mb - 0.00 in0.0 mm 0.00 in0.0 mm
10:45 AM 51.7°F10.9°C 34.1°F1.2°C 51% 9.2 mph ESE14.8 kmh ESE 11.5 mph18.5 kmh 30.49 in1032.5 mb - 0.00 in0.0 mm 0.00 in0.0 mm
10:30 AM 50.8°F10.4°C 33.3°F0.7°C 51% 6.9 mph ESE11.1 kmh ESE 10.4 mph16.7 kmh 30.49 in1032.5 mb - 0.00 in0.0 mm 0.00 in0.0 mm
10:15 AM 50.0°F10.0°C 33.0°F0.6°C 52% 10.4 mph ESE16.7 kmh ESE 12.7 mph20.4 kmh 30.50 in1032.8 mb - 0.00 in0.0 mm 0.00 in0.0 mm
10:00 AM 49.2°F9.6°C 33.3°F0.7°C 54% 12.7 mph E20.4 kmh E 16.1 mph25.9 kmh 30.49 in1032.5 mb - 0.00 in0.0 mm 0.00 in0.0 mm
09:45 AM 48.6°F9.2°C 32.7°F0.4°C 54% 12.7 mph E20.4 kmh E 15.0 mph24.1 kmh 30.49 in1032.5 mb - 0.00 in0.0 mm 0.00 in0.0 mm
09:30 AM 47.5°F8.6°C 32.6°F0.3°C 56% 11.5 mph ESE18.5 kmh ESE 15.0 mph24.1 kmh 30.50 in1032.8 mb - 0.00 in0.0 mm 0.00 in0.0 mm
09:15 AM 46.9°F8.3°C 32.0°F0.0°C 56% 15.0 mph ESE24.1 kmh ESE 17.3 mph27.8 kmh 30.50 in1032.8 mb - 0.00 in0.0 mm 0.00 in0.0 mm
09:00 AM 46.1°F7.8°C 31.7°F-0.2°C 57% 15.0 mph E24.1 kmh E 16.1 mph25.9 kmh 30.49 in1032.5 mb - 0.00 in0.0 mm 0.00 in0.0 mm
08:45 AM 45.2°F7.3°C 31.3°F-0.4°C 58% 12.7 mph E20.4 kmh E 15.0 mph24.1 kmh 30.50 in1032.8 mb - 0.00 in0.0 mm 0.00 in0.0 mm
08:30 AM 44.7°F7.1°C 31.2°F-0.4°C 59% 15.0 mph ESE24.1 kmh ESE 16.1 mph25.9 kmh 30.49 in1032.5 mb - 0.00 in0.0 mm 0.00 in0.0 mm
08:15 AM 44.1°F6.7°C 30.7°F-0.7°C 59% 13.8 mph ESE22.2 kmh ESE 16.1 mph25.9 kmh 30.50 in1032.8 mb - 0.00 in0.0 mm 0.00 in0.0 mm
08:00 AM 43.6°F6.4°C 31.0°F-0.6°C 61% 13.8 mph SE22.2 kmh SE 17.3 mph27.8 kmh 30.50 in1032.8 mb - 0.00 in0.0 mm 0.00 in0.0 mm
07:45 AM 42.7°F5.9°C 32.1°F0.1°C 66% 9.2 mph SE14.8 kmh SE 12.7 mph20.4 kmh 30.50 in1032.8 mb - 0.00 in0.0 mm 0.00 in0.0 mm
07:30 AM 41.2°F5.1°C 31.0°F-0.6°C 67% 8.1 mph SE13.0 kmh SE 10.4 mph16.7 kmh 30.50 in1032.8 mb - 0.00 in0.0 mm 0.00 in0.0 mm
07:15 AM 39.9°F4.4°C 29.8°F-1.2°C 67% 8.1 mph SE13.0 kmh SE 9.2 mph14.8 kmh 30.50 in1032.8 mb - 0.00 in0.0 mm 0.00 in0.0 mm
07:00 AM 38.1°F3.4°C 30.2°F-1.0°C 73% 4.6 mph SE7.4 kmh SE 5.8 mph9.3 kmh 30.50 in1032.8 mb - 0.00 in0.0 mm 0.00 in0.0 mm
06:45 AM 36.6°F2.6°C 28.8°F-1.8°C 73% 4.6 mph SE7.4 kmh SE 5.8 mph9.3 kmh 30.50 in1032.8 mb - 0.00 in0.0 mm 0.00 in0.0 mm
06:30 AM 36.3°F2.4°C 27.8°F-2.3°C 71% 5.8 mph SE9.3 kmh SE 5.8 mph9.3 kmh 30.51 in1033.2 mb - 0.00 in0.0 mm 0.00 in0.0 mm
06:15 AM 36.9°F2.7°C 27.3°F-2.6°C 68% 9.2 mph SE14.8 kmh SE 10.4 mph16.7 kmh 30.50 in1032.8 mb - 0.00 in0.0 mm 0.00 in0.0 mm
06:00 AM 37.5°F3.1°C 26.8°F-2.9°C 65% 5.8 mph SE9.3 kmh SE 5.8 mph9.3 kmh 30.49 in1032.5 mb - 0.00 in0.0 mm 0.00 in0.0 mm
05:45 AM 36.6°F2.6°C 26.7°F-2.9°C 67% 4.6 mph SE7.4 kmh SE 5.8 mph9.3 kmh 30.49 in1032.5 mb - 0.00 in0.0 mm 0.00 in0.0 mm
05:30 AM 36.1°F2.3°C 26.9°F-2.8°C 69% 6.9 mph SE11.1 kmh SE 6.9 mph11.1 kmh 30.49 in1032.5 mb - 0.00 in0.0 mm 0.00 in0.0 mm
05:15 AM 36.2°F2.3°C 26.6°F-3.0°C 68% 6.9 mph SE11.1 kmh SE 6.9 mph11.1 kmh 30.49 in1032.5 mb - 0.00 in0.0 mm 0.00 in0.0 mm
05:00 AM 36.5°F2.5°C 26.9°F-2.8°C 68% 3.5 mph SE5.6 kmh SE 4.6 mph7.4 kmh 30.49 in1032.5 mb - 0.00 in0.0 mm 0.00 in0.0 mm
04:45 AM 37.0°F2.8°C 26.7°F-2.9°C 66% 3.5 mph SE5.6 kmh SE 3.5 mph5.6 kmh 30.49 in1032.5 mb - 0.00 in0.0 mm 0.00 in0.0 mm
04:30 AM 37.1°F2.8°C 26.8°F-2.9°C 66% 5.8 mph SE9.3 kmh SE 5.8 mph9.3 kmh 30.49 in1032.5 mb - 0.00 in0.0 mm 0.00 in0.0 mm
04:15 AM 36.6°F2.6°C 26.7°F-2.9°C 67% 4.6 mph SE7.4 kmh SE 4.6 mph7.4 kmh 30.49 in1032.5 mb - 0.00 in0.0 mm 0.00 in0.0 mm
04:00 AM 36.6°F2.6°C 26.7°F-2.9°C 67% 3.5 mph SE5.6 kmh SE 3.5 mph5.6 kmh 30.49 in1032.5 mb - 0.00 in0.0 mm 0.00 in0.0 mm
03:45 AM 35.9°F2.2°C 26.7°F-2.9°C 69% 3.5 mph SE5.6 kmh SE 3.5 mph5.6 kmh 30.49 in1032.5 mb - 0.00 in0.0 mm 0.00 in0.0 mm
03:30 AM 36.5°F2.5°C 26.6°F-3.0°C 67% 3.5 mph SE5.6 kmh SE 3.5 mph5.6 kmh 30.49 in1032.5 mb - 0.00 in0.0 mm 0.00 in0.0 mm
03:15 AM 36.6°F2.6°C 26.3°F-3.2°C 66% Calm Calm -- 30.49 in1032.5 mb - 0.00 in0.0 mm 0.00 in0.0 mm
03:00 AM 36.4°F2.4°C 26.5°F-3.1°C 67% Calm Calm -- 30.49 in1032.5 mb - 0.00 in0.0 mm 0.00 in0.0 mm
02:45 AM 36.7°F2.6°C 26.7°F-2.9°C 67% Calm Calm -- 30.49 in1032.5 mb - 0.00 in0.0 mm 0.00 in0.0 mm
02:30 AM 37.3°F2.9°C 26.6°F-3.0°C 65% 1.2 mph SE1.9 kmh SE 2.3 mph3.7 kmh 30.49 in1032.5 mb - 0.00 in0.0 mm 0.00 in0.0 mm
02:15 AM 37.7°F3.2°C 26.6°F-3.0°C 64% 2.3 mph SE3.7 kmh SE 3.5 mph5.6 kmh 30.49 in1032.5 mb - 0.00 in0.0 mm 0.00 in0.0 mm
02:00 AM 39.7°F4.3°C 26.5°F-3.1°C 59% 2.3 mph ESE3.7 kmh ESE 4.6 mph7.4 kmh 30.48 in1032.2 mb - 0.00 in0.0 mm 0.00 in0.0 mm
01:45 AM 43.6°F6.4°C 26.2°F-3.2°C 50% 5.8 mph E9.3 kmh E 5.8 mph9.3 kmh 30.47 in1031.8 mb - 0.00 in0.0 mm 0.00 in0.0 mm
01:30 AM 43.7°F6.5°C 26.3°F-3.2°C 50% 5.8 mph E9.3 kmh E 5.8 mph9.3 kmh 30.47 in1031.8 mb - 0.00 in0.0 mm 0.00 in0.0 mm
01:15 AM 44.4°F6.9°C 25.9°F-3.4°C 48% 6.9 mph E11.1 kmh E 8.1 mph13.0 kmh 30.47 in1031.8 mb - 0.00 in0.0 mm 0.00 in0.0 mm
01:00 AM 42.1°F5.6°C 25.8°F-3.4°C 52% 3.5 mph E5.6 kmh E 3.5 mph5.6 kmh 30.48 in1032.2 mb - 0.00 in0.0 mm 0.00 in0.0 mm
12:45 AM 42.6°F5.9°C 26.6°F-3.0°C 53% 4.6 mph E7.4 kmh E 4.6 mph7.4 kmh 30.47 in1031.8 mb - 0.00 in0.0 mm 0.00 in0.0 mm
12:30 AM 43.9°F6.6°C 26.5°F-3.1°C 50% 6.9 mph E11.1 kmh E 9.2 mph14.8 kmh 30.47 in1031.8 mb - 0.00 in0.0 mm 0.00 in0.0 mm
12:15 AM 44.4°F6.9°C 26.4°F-3.1°C 49% 5.8 mph E9.3 kmh E 5.8 mph9.3 kmh 30.48 in1032.2 mb - 0.00 in0.0 mm 0.00 in0.0 mm
12:00 AM 45.7°F7.6°C 26.1°F-3.3°C 46% 4.6 mph E7.4 kmh E 5.8 mph9.3 kmh 30.48 in1032.2 mb - 0.00 in0.0 mm 0.00 in0.0 mm